sensor_id;sensor_type;location;lat;lon;timestamp;P1;durP1;ratioP1;P2;durP2;ratioP2
6821;SDS011;3449;48.728;8.968;2023-02-28T00:00:08;1.63;;;1.53;;
6821;SDS011;3449;48.728;8.968;2023-02-28T00:02:37;3.23;;;1.70;;
6821;SDS011;3449;48.728;8.968;2023-02-28T00:05:05;7.40;;;2.23;;
6821;SDS011;3449;48.728;8.968;2023-02-28T00:07:34;2.10;;;1.53;;
6821;SDS011;3449;48.728;8.968;2023-02-28T00:10:01;1.87;;;1.47;;
6821;SDS011;3449;48.728;8.968;2023-02-28T00:12:31;2.90;;;2.10;;
6821;SDS011;3449;48.728;8.968;2023-02-28T00:14:58;3.43;;;1.60;;
6821;SDS011;3449;48.728;8.968;2023-02-28T00:17:25;4.20;;;1.83;;
6821;SDS011;3449;48.728;8.968;2023-02-28T00:19:53;2.20;;;1.50;;
6821;SDS011;3449;48.728;8.968;2023-02-28T00:22:20;2.97;;;2.13;;
6821;SDS011;3449;48.728;8.968;2023-02-28T00:24:47;3.23;;;1.90;;
6821;SDS011;3449;48.728;8.968;2023-02-28T00:27:14;4.10;;;2.00;;
6821;SDS011;3449;48.728;8.968;2023-02-28T00:29:41;2.10;;;1.70;;
6821;SDS011;3449;48.728;8.968;2023-02-28T00:32:08;4.23;;;1.80;;
6821;SDS011;3449;48.728;8.968;2023-02-28T00:34:35;3.50;;;2.00;;
6821;SDS011;3449;48.728;8.968;2023-02-28T00:37:04;2.03;;;1.27;;
6821;SDS011;3449;48.728;8.968;2023-02-28T00:39:33;4.77;;;1.60;;
6821;SDS011;3449;48.728;8.968;2023-02-28T00:42:01;2.43;;;1.93;;
6821;SDS011;3449;48.728;8.968;2023-02-28T00:44:28;3.20;;;2.07;;
6821;SDS011;3449;48.728;8.968;2023-02-28T00:46:55;7.67;;;1.87;;
6821;SDS011;3449;48.728;8.968;2023-02-28T00:49:22;2.70;;;1.63;;
6821;SDS011;3449;48.728;8.968;2023-02-28T00:51:50;2.70;;;1.60;;
6821;SDS011;3449;48.728;8.968;2023-02-28T00:54:18;3.63;;;2.07;;
6821;SDS011;3449;48.728;8.968;2023-02-28T00:56:45;5.50;;;1.73;;
6821;SDS011;3449;48.728;8.968;2023-02-28T00:59:12;3.17;;;1.90;;
6821;SDS011;3449;48.728;8.968;2023-02-28T01:01:39;6.53;;;2.20;;
6821;SDS011;3449;48.728;8.968;2023-02-28T01:04:06;3.87;;;2.00;;
6821;SDS011;3449;48.728;8.968;2023-02-28T01:06:33;3.47;;;2.00;;
6821;SDS011;3449;48.728;8.968;2023-02-28T01:09:00;3.43;;;2.03;;
6821;SDS011;3449;48.728;8.968;2023-02-28T01:11:29;2.47;;;1.50;;
6821;SDS011;3449;48.728;8.968;2023-02-28T01:13:57;1.83;;;1.60;;
6821;SDS011;3449;48.728;8.968;2023-02-28T01:16:24;3.00;;;1.73;;
6821;SDS011;3449;48.728;8.968;2023-02-28T01:18:52;5.60;;;2.10;;
6821;SDS011;3449;48.728;8.968;2023-02-28T01:21:19;4.13;;;2.23;;
6821;SDS011;3449;48.728;8.968;2023-02-28T01:23:47;3.40;;;1.80;;
6821;SDS011;3449;48.728;8.968;2023-02-28T01:26:15;2.03;;;1.40;;
6821;SDS011;3449;48.728;8.968;2023-02-28T01:28:46;2.07;;;1.80;;
6821;SDS011;3449;48.728;8.968;2023-02-28T01:31:14;2.97;;;2.00;;
6821;SDS011;3449;48.728;8.968;2023-02-28T01:33:41;4.47;;;1.87;;
6821;SDS011;3449;48.728;8.968;2023-02-28T01:36:09;9.83;;;2.30;;
6821;SDS011;3449;48.728;8.968;2023-02-28T01:38:37;2.03;;;1.70;;
6821;SDS011;3449;48.728;8.968;2023-02-28T01:41:04;2.10;;;1.80;;
6821;SDS011;3449;48.728;8.968;2023-02-28T01:43:39;5.53;;;2.60;;
6821;SDS011;3449;48.728;8.968;2023-02-28T01:46:21;2.20;;;2.00;;
6821;SDS011;3449;48.728;8.968;2023-02-28T01:48:49;2.03;;;1.60;;
6821;SDS011;3449;48.728;8.968;2023-02-28T01:51:22;2.97;;;2.00;;
6821;SDS011;3449;48.728;8.968;2023-02-28T01:53:53;2.00;;;1.80;;
6821;SDS011;3449;48.728;8.968;2023-02-28T01:56:24;2.73;;;1.93;;
6821;SDS011;3449;48.728;8.968;2023-02-28T01:58:55;6.30;;;2.47;;
6821;SDS011;3449;48.728;8.968;2023-02-28T02:01:23;2.83;;;2.60;;
6821;SDS011;3449;48.728;8.968;2023-02-28T02:03:53;4.30;;;2.27;;
6821;SDS011;3449;48.728;8.968;2023-02-28T02:06:21;2.87;;;2.47;;
6821;SDS011;3449;48.728;8.968;2023-02-28T02:08:49;4.73;;;2.40;;
6821;SDS011;3449;48.728;8.968;2023-02-28T02:11:17;5.77;;;2.23;;
6821;SDS011;3449;48.728;8.968;2023-02-28T02:13:54;5.60;;;2.70;;
6821;SDS011;3449;48.728;8.968;2023-02-28T02:16:48;3.90;;;2.63;;
6821;SDS011;3449;48.728;8.968;2023-02-28T02:19:49;2.93;;;2.43;;
6821;SDS011;3449;48.728;8.968;2023-02-28T02:25:58;4.90;;;2.30;;
6821;SDS011;3449;48.728;8.968;2023-02-28T02:35:00;5.00;;;2.70;;
6821;SDS011;3449;48.728;8.968;2023-02-28T02:37:38;4.50;;;2.77;;
6821;SDS011;3449;48.728;8.968;2023-02-28T02:40:13;6.53;;;2.10;;
6821;SDS011;3449;48.728;8.968;2023-02-28T02:42:45;4.27;;;2.40;;
6821;SDS011;3449;48.728;8.968;2023-02-28T02:45:18;3.40;;;2.50;;
6821;SDS011;3449;48.728;8.968;2023-02-28T02:47:49;4.20;;;2.53;;
6821;SDS011;3449;48.728;8.968;2023-02-28T02:50:19;5.47;;;2.90;;
6821;SDS011;3449;48.728;8.968;2023-02-28T02:52:52;3.63;;;2.70;;
6821;SDS011;3449;48.728;8.968;2023-02-28T02:55:22;6.07;;;3.30;;
6821;SDS011;3449;48.728;8.968;2023-02-28T02:57:51;5.20;;;2.87;;
6821;SDS011;3449;48.728;8.968;2023-02-28T03:00:22;3.00;;;1.90;;
6821;SDS011;3449;48.728;8.968;2023-02-28T03:02:54;4.17;;;2.73;;
6821;SDS011;3449;48.728;8.968;2023-02-28T03:05:26;6.10;;;3.83;;
6821;SDS011;3449;48.728;8.968;2023-02-28T03:07:55;2.77;;;2.30;;
6821;SDS011;3449;48.728;8.968;2023-02-28T03:10:30;4.20;;;2.73;;
6821;SDS011;3449;48.728;8.968;2023-02-28T03:13:02;4.37;;;3.40;;
6821;SDS011;3449;48.728;8.968;2023-02-28T03:15:44;5.30;;;2.90;;
6821;SDS011;3449;48.728;8.968;2023-02-28T03:18:21;7.13;;;2.47;;
6821;SDS011;3449;48.728;8.968;2023-02-28T03:20:56;7.70;;;3.50;;
6821;SDS011;3449;48.728;8.968;2023-02-28T03:23:35;5.47;;;3.67;;
6821;SDS011;3449;48.728;8.968;2023-02-28T03:26:11;7.97;;;2.50;;
6821;SDS011;3449;48.728;8.968;2023-02-28T03:28:48;6.43;;;3.00;;
6821;SDS011;3449;48.728;8.968;2023-02-28T03:31:20;5.73;;;3.00;;
6821;SDS011;3449;48.728;8.968;2023-02-28T03:33:54;4.03;;;2.87;;
6821;SDS011;3449;48.728;8.968;2023-02-28T03:36:28;5.87;;;3.17;;
6821;SDS011;3449;48.728;8.968;2023-02-28T03:38:58;3.87;;;2.73;;
6821;SDS011;3449;48.728;8.968;2023-02-28T03:41:30;5.43;;;2.97;;
6821;SDS011;3449;48.728;8.968;2023-02-28T03:44:03;3.87;;;3.00;;
6821;SDS011;3449;48.728;8.968;2023-02-28T03:46:34;5.83;;;3.40;;
6821;SDS011;3449;48.728;8.968;2023-02-28T03:49:06;6.07;;;3.07;;
6821;SDS011;3449;48.728;8.968;2023-02-28T03:51:41;4.27;;;2.47;;
6821;SDS011;3449;48.728;8.968;2023-02-28T03:54:12;6.10;;;3.77;;
6821;SDS011;3449;48.728;8.968;2023-02-28T03:56:43;13.40;;;3.40;;
6821;SDS011;3449;48.728;8.968;2023-02-28T03:59:15;4.40;;;3.20;;
6821;SDS011;3449;48.728;8.968;2023-02-28T04:01:45;4.63;;;3.47;;
6821;SDS011;3449;48.728;8.968;2023-02-28T04:04:14;6.80;;;3.60;;
6821;SDS011;3449;48.728;8.968;2023-02-28T04:06:43;7.30;;;3.47;;
6821;SDS011;3449;48.728;8.968;2023-02-28T04:09:12;5.43;;;2.97;;
6821;SDS011;3449;48.728;8.968;2023-02-28T04:11:41;5.50;;;3.43;;
6821;SDS011;3449;48.728;8.968;2023-02-28T04:14:10;5.93;;;3.37;;
6821;SDS011;3449;48.728;8.968;2023-02-28T04:16:38;5.17;;;3.03;;
6821;SDS011;3449;48.728;8.968;2023-02-28T04:19:07;6.30;;;3.63;;
6821;SDS011;3449;48.728;8.968;2023-02-28T04:21:36;6.37;;;3.17;;
6821;SDS011;3449;48.728;8.968;2023-02-28T04:24:07;9.13;;;3.53;;
6821;SDS011;3449;48.728;8.968;2023-02-28T04:26:39;5.97;;;3.53;;
6821;SDS011;3449;48.728;8.968;2023-02-28T04:29:08;6.03;;;3.60;;
6821;SDS011;3449;48.728;8.968;2023-02-28T04:31:36;7.80;;;3.60;;
6821;SDS011;3449;48.728;8.968;2023-02-28T04:34:03;8.27;;;4.20;;
6821;SDS011;3449;48.728;8.968;2023-02-28T04:36:31;10.10;;;3.40;;
6821;SDS011;3449;48.728;8.968;2023-02-28T04:38:58;5.30;;;3.47;;
6821;SDS011;3449;48.728;8.968;2023-02-28T04:41:26;5.73;;;3.60;;
6821;SDS011;3449;48.728;8.968;2023-02-28T04:43:53;6.20;;;3.40;;
6821;SDS011;3449;48.728;8.968;2023-02-28T04:46:21;8.07;;;4.70;;
6821;SDS011;3449;48.728;8.968;2023-02-28T04:48:48;6.00;;;3.90;;
6821;SDS011;3449;48.728;8.968;2023-02-28T04:51:16;7.63;;;3.50;;
6821;SDS011;3449;48.728;8.968;2023-02-28T04:53:44;4.60;;;3.57;;
6821;SDS011;3449;48.728;8.968;2023-02-28T04:56:12;4.70;;;4.13;;
6821;SDS011;3449;48.728;8.968;2023-02-28T04:58:42;13.43;;;4.30;;
6821;SDS011;3449;48.728;8.968;2023-02-28T05:01:16;7.30;;;3.67;;
6821;SDS011;3449;48.728;8.968;2023-02-28T05:03:45;11.23;;;4.00;;
6821;SDS011;3449;48.728;8.968;2023-02-28T05:06:12;14.23;;;4.33;;
6821;SDS011;3449;48.728;8.968;2023-02-28T05:08:39;4.97;;;3.33;;
6821;SDS011;3449;48.728;8.968;2023-02-28T05:11:07;7.10;;;3.37;;
6821;SDS011;3449;48.728;8.968;2023-02-28T05:13:38;7.23;;;3.20;;
6821;SDS011;3449;48.728;8.968;2023-02-28T05:16:07;5.47;;;3.40;;
6821;SDS011;3449;48.728;8.968;2023-02-28T05:18:34;9.63;;;3.90;;
6821;SDS011;3449;48.728;8.968;2023-02-28T05:21:01;6.83;;;4.60;;
6821;SDS011;3449;48.728;8.968;2023-02-28T05:23:28;6.87;;;4.37;;
6821;SDS011;3449;48.728;8.968;2023-02-28T05:25:55;7.67;;;4.60;;
6821;SDS011;3449;48.728;8.968;2023-02-28T05:28:22;5.70;;;3.73;;
6821;SDS011;3449;48.728;8.968;2023-02-28T05:30:49;8.30;;;5.50;;
6821;SDS011;3449;48.728;8.968;2023-02-28T05:33:18;8.57;;;5.43;;
6821;SDS011;3449;48.728;8.968;2023-02-28T05:35:44;6.40;;;4.07;;
6821;SDS011;3449;48.728;8.968;2023-02-28T05:38:11;7.77;;;4.07;;
6821;SDS011;3449;48.728;8.968;2023-02-28T05:40:38;8.23;;;3.87;;
6821;SDS011;3449;48.728;8.968;2023-02-28T05:43:05;10.57;;;4.37;;
6821;SDS011;3449;48.728;8.968;2023-02-28T05:45:35;13.00;;;5.50;;
6821;SDS011;3449;48.728;8.968;2023-02-28T05:48:02;7.00;;;4.13;;
6821;SDS011;3449;48.728;8.968;2023-02-28T05:50:30;7.80;;;4.10;;
6821;SDS011;3449;48.728;8.968;2023-02-28T05:52:57;5.13;;;3.63;;
6821;SDS011;3449;48.728;8.968;2023-02-28T05:55:24;10.10;;;4.73;;
6821;SDS011;3449;48.728;8.968;2023-02-28T05:57:51;10.60;;;3.83;;
6821;SDS011;3449;48.728;8.968;2023-02-28T06:00:18;6.07;;;3.87;;
6821;SDS011;3449;48.728;8.968;2023-02-28T06:02:45;13.77;;;4.57;;
6821;SDS011;3449;48.728;8.968;2023-02-28T06:05:13;8.40;;;4.70;;
6821;SDS011;3449;48.728;8.968;2023-02-28T06:07:42;8.20;;;4.60;;
6821;SDS011;3449;48.728;8.968;2023-02-28T06:10:10;6.60;;;4.50;;
6821;SDS011;3449;48.728;8.968;2023-02-28T06:12:37;8.50;;;5.27;;
6821;SDS011;3449;48.728;8.968;2023-02-28T06:15:06;9.40;;;4.43;;
6821;SDS011;3449;48.728;8.968;2023-02-28T06:17:36;5.37;;;3.73;;
6821;SDS011;3449;48.728;8.968;2023-02-28T06:20:04;9.83;;;4.60;;
6821;SDS011;3449;48.728;8.968;2023-02-28T06:22:32;6.40;;;4.43;;
6821;SDS011;3449;48.728;8.968;2023-02-28T06:25:00;10.90;;;4.97;;
6821;SDS011;3449;48.728;8.968;2023-02-28T06:27:27;7.10;;;4.67;;
6821;SDS011;3449;48.728;8.968;2023-02-28T06:29:54;10.27;;;4.83;;
6821;SDS011;3449;48.728;8.968;2023-02-28T06:32:21;6.37;;;4.80;;
6821;SDS011;3449;48.728;8.968;2023-02-28T06:34:48;11.47;;;5.40;;
6821;SDS011;3449;48.728;8.968;2023-02-28T06:37:16;8.57;;;4.93;;
6821;SDS011;3449;48.728;8.968;2023-02-28T06:39:43;10.83;;;4.80;;
6821;SDS011;3449;48.728;8.968;2023-02-28T06:42:11;5.10;;;3.87;;
6821;SDS011;3449;48.728;8.968;2023-02-28T06:44:38;9.20;;;5.10;;
6821;SDS011;3449;48.728;8.968;2023-02-28T06:47:05;5.83;;;4.57;;
6821;SDS011;3449;48.728;8.968;2023-02-28T06:49:33;14.53;;;4.83;;
6821;SDS011;3449;48.728;8.968;2023-02-28T06:52:01;5.97;;;4.43;;
6821;SDS011;3449;48.728;8.968;2023-02-28T06:54:28;6.67;;;4.40;;
6821;SDS011;3449;48.728;8.968;2023-02-28T06:56:55;9.07;;;5.60;;
6821;SDS011;3449;48.728;8.968;2023-02-28T06:59:25;11.07;;;6.47;;
6821;SDS011;3449;48.728;8.968;2023-02-28T07:01:52;8.07;;;4.80;;
6821;SDS011;3449;48.728;8.968;2023-02-28T07:04:20;11.23;;;5.43;;
6821;SDS011;3449;48.728;8.968;2023-02-28T07:06:47;7.47;;;4.60;;
6821;SDS011;3449;48.728;8.968;2023-02-28T07:09:14;9.53;;;4.73;;
6821;SDS011;3449;48.728;8.968;2023-02-28T07:11:41;8.47;;;5.17;;
6821;SDS011;3449;48.728;8.968;2023-02-28T07:14:08;9.83;;;5.57;;
6821;SDS011;3449;48.728;8.968;2023-02-28T07:16:37;19.03;;;6.63;;
6821;SDS011;3449;48.728;8.968;2023-02-28T07:19:03;9.23;;;4.90;;
6821;SDS011;3449;48.728;8.968;2023-02-28T07:21:30;7.57;;;4.67;;
6821;SDS011;3449;48.728;8.968;2023-02-28T07:23:57;7.77;;;4.60;;
6821;SDS011;3449;48.728;8.968;2023-02-28T07:26:24;7.70;;;5.10;;
6821;SDS011;3449;48.728;8.968;2023-02-28T07:28:51;7.30;;;4.90;;
6821;SDS011;3449;48.728;8.968;2023-02-28T07:31:19;14.00;;;6.23;;
6821;SDS011;3449;48.728;8.968;2023-02-28T07:33:47;9.00;;;5.20;;
6821;SDS011;3449;48.728;8.968;2023-02-28T07:36:20;7.00;;;4.43;;
6821;SDS011;3449;48.728;8.968;2023-02-28T07:38:47;7.77;;;5.40;;
6821;SDS011;3449;48.728;8.968;2023-02-28T07:41:15;9.00;;;5.17;;
6821;SDS011;3449;48.728;8.968;2023-02-28T07:43:42;9.30;;;5.50;;
6821;SDS011;3449;48.728;8.968;2023-02-28T07:46:10;7.60;;;5.00;;
6821;SDS011;3449;48.728;8.968;2023-02-28T07:48:40;10.70;;;5.07;;
6821;SDS011;3449;48.728;8.968;2023-02-28T07:51:08;12.00;;;5.93;;
6821;SDS011;3449;48.728;8.968;2023-02-28T07:53:35;11.30;;;6.33;;
6821;SDS011;3449;48.728;8.968;2023-02-28T07:56:02;13.93;;;5.00;;
6821;SDS011;3449;48.728;8.968;2023-02-28T07:58:29;9.03;;;5.00;;
6821;SDS011;3449;48.728;8.968;2023-02-28T08:00:57;9.17;;;5.50;;
6821;SDS011;3449;48.728;8.968;2023-02-28T08:03:30;13.80;;;5.20;;
6821;SDS011;3449;48.728;8.968;2023-02-28T08:05:57;10.70;;;5.63;;
6821;SDS011;3449;48.728;8.968;2023-02-28T08:08:25;10.50;;;5.77;;
6821;SDS011;3449;48.728;8.968;2023-02-28T08:10:57;6.40;;;4.00;;
6821;SDS011;3449;48.728;8.968;2023-02-28T08:13:24;10.03;;;5.00;;
6821;SDS011;3449;48.728;8.968;2023-02-28T08:15:52;9.00;;;4.63;;
6821;SDS011;3449;48.728;8.968;2023-02-28T08:18:19;10.60;;;5.83;;
6821;SDS011;3449;48.728;8.968;2023-02-28T08:20:47;14.43;;;5.83;;
6821;SDS011;3449;48.728;8.968;2023-02-28T08:23:14;9.20;;;5.10;;
6821;SDS011;3449;48.728;8.968;2023-02-28T08:25:42;13.97;;;5.40;;
6821;SDS011;3449;48.728;8.968;2023-02-28T08:28:09;15.73;;;6.87;;
6821;SDS011;3449;48.728;8.968;2023-02-28T08:30:36;12.80;;;5.60;;
6821;SDS011;3449;48.728;8.968;2023-02-28T08:33:05;11.67;;;5.90;;
6821;SDS011;3449;48.728;8.968;2023-02-28T08:35:34;16.37;;;5.53;;
6821;SDS011;3449;48.728;8.968;2023-02-28T08:38:02;11.53;;;6.37;;
6821;SDS011;3449;48.728;8.968;2023-02-28T08:40:29;9.87;;;5.17;;
6821;SDS011;3449;48.728;8.968;2023-02-28T08:42:57;9.03;;;4.90;;
6821;SDS011;3449;48.728;8.968;2023-02-28T08:45:31;8.67;;;5.53;;
6821;SDS011;3449;48.728;8.968;2023-02-28T08:47:57;10.50;;;5.60;;
6821;SDS011;3449;48.728;8.968;2023-02-28T08:50:24;9.87;;;5.87;;
6821;SDS011;3449;48.728;8.968;2023-02-28T08:52:51;14.23;;;5.80;;
6821;SDS011;3449;48.728;8.968;2023-02-28T08:55:18;8.77;;;5.20;;
6821;SDS011;3449;48.728;8.968;2023-02-28T08:57:45;11.10;;;5.70;;
6821;SDS011;3449;48.728;8.968;2023-02-28T09:00:14;14.63;;;6.57;;
6821;SDS011;3449;48.728;8.968;2023-02-28T09:02:41;10.27;;;5.80;;
6821;SDS011;3449;48.728;8.968;2023-02-28T09:05:09;12.33;;;6.77;;
6821;SDS011;3449;48.728;8.968;2023-02-28T09:07:36;10.57;;;6.23;;
6821;SDS011;3449;48.728;8.968;2023-02-28T09:10:03;20.70;;;6.33;;
6821;SDS011;3449;48.728;8.968;2023-02-28T09:12:32;11.20;;;5.87;;
6821;SDS011;3449;48.728;8.968;2023-02-28T09:15:03;12.13;;;5.97;;
6821;SDS011;3449;48.728;8.968;2023-02-28T09:17:32;11.57;;;5.83;;
6821;SDS011;3449;48.728;8.968;2023-02-28T09:19:59;11.77;;;6.57;;
6821;SDS011;3449;48.728;8.968;2023-02-28T09:22:26;8.53;;;5.00;;
6821;SDS011;3449;48.728;8.968;2023-02-28T09:24:53;14.20;;;6.40;;
6821;SDS011;3449;48.728;8.968;2023-02-28T09:27:20;13.97;;;7.30;;
6821;SDS011;3449;48.728;8.968;2023-02-28T09:29:47;13.70;;;6.00;;
6821;SDS011;3449;48.728;8.968;2023-02-28T09:32:14;12.47;;;6.67;;
6821;SDS011;3449;48.728;8.968;2023-02-28T09:34:43;14.30;;;6.60;;
6821;SDS011;3449;48.728;8.968;2023-02-28T09:37:10;9.00;;;5.87;;
6821;SDS011;3449;48.728;8.968;2023-02-28T09:39:37;13.50;;;6.40;;
6821;SDS011;3449;48.728;8.968;2023-02-28T09:42:04;10.20;;;5.53;;
6821;SDS011;3449;48.728;8.968;2023-02-28T09:44:33;9.60;;;6.10;;
6821;SDS011;3449;48.728;8.968;2023-02-28T09:47:05;12.40;;;6.50;;
6821;SDS011;3449;48.728;8.968;2023-02-28T09:49:39;11.07;;;6.30;;
6821;SDS011;3449;48.728;8.968;2023-02-28T09:52:12;12.03;;;5.70;;
6821;SDS011;3449;48.728;8.968;2023-02-28T09:54:41;11.90;;;6.10;;
6821;SDS011;3449;48.728;8.968;2023-02-28T09:57:11;15.80;;;6.90;;
6821;SDS011;3449;48.728;8.968;2023-02-28T09:59:55;13.13;;;6.13;;
6821;SDS011;3449;48.728;8.968;2023-02-28T10:02:46;16.23;;;7.20;;
6821;SDS011;3449;48.728;8.968;2023-02-28T10:05:20;12.30;;;6.50;;
6821;SDS011;3449;48.728;8.968;2023-02-28T10:08:02;11.17;;;6.30;;
6821;SDS011;3449;48.728;8.968;2023-02-28T10:10:39;17.53;;;6.03;;
6821;SDS011;3449;48.728;8.968;2023-02-28T10:13:13;10.73;;;6.60;;
6821;SDS011;3449;48.728;8.968;2023-02-28T10:15:44;11.83;;;6.33;;
6821;SDS011;3449;48.728;8.968;2023-02-28T10:18:14;15.23;;;6.93;;
6821;SDS011;3449;48.728;8.968;2023-02-28T10:20:47;19.13;;;7.80;;
6821;SDS011;3449;48.728;8.968;2023-02-28T10:23:17;9.77;;;6.50;;
6821;SDS011;3449;48.728;8.968;2023-02-28T10:25:50;14.00;;;6.40;;
6821;SDS011;3449;48.728;8.968;2023-02-28T10:28:21;14.90;;;7.10;;
6821;SDS011;3449;48.728;8.968;2023-02-28T10:30:48;15.23;;;6.50;;
6821;SDS011;3449;48.728;8.968;2023-02-28T10:33:19;10.73;;;5.43;;
6821;SDS011;3449;48.728;8.968;2023-02-28T10:35:48;8.80;;;5.63;;
6821;SDS011;3449;48.728;8.968;2023-02-28T10:38:18;11.00;;;6.27;;
6821;SDS011;3449;48.728;8.968;2023-02-28T10:40:48;8.87;;;5.27;;
6821;SDS011;3449;48.728;8.968;2023-02-28T10:43:19;11.50;;;6.27;;
6821;SDS011;3449;48.728;8.968;2023-02-28T10:45:53;12.10;;;6.00;;
6821;SDS011;3449;48.728;8.968;2023-02-28T10:48:30;13.53;;;6.57;;
6821;SDS011;3449;48.728;8.968;2023-02-28T10:51:02;12.40;;;6.53;;
6821;SDS011;3449;48.728;8.968;2023-02-28T10:53:33;15.03;;;6.67;;
6821;SDS011;3449;48.728;8.968;2023-02-28T10:56:03;11.30;;;6.33;;
6821;SDS011;3449;48.728;8.968;2023-02-28T10:58:34;12.50;;;7.20;;
6821;SDS011;3449;48.728;8.968;2023-02-28T11:01:14;17.43;;;7.00;;
6821;SDS011;3449;48.728;8.968;2023-02-28T11:03:42;11.67;;;6.10;;
6821;SDS011;3449;48.728;8.968;2023-02-28T11:06:13;9.27;;;6.10;;
6821;SDS011;3449;48.728;8.968;2023-02-28T11:08:45;10.23;;;6.17;;
6821;SDS011;3449;48.728;8.968;2023-02-28T11:11:15;9.90;;;6.27;;
6821;SDS011;3449;48.728;8.968;2023-02-28T11:13:49;13.60;;;6.90;;
6821;SDS011;3449;48.728;8.968;2023-02-28T11:16:19;12.57;;;6.53;;
6821;SDS011;3449;48.728;8.968;2023-02-28T11:18:47;11.90;;;7.23;;
6821;SDS011;3449;48.728;8.968;2023-02-28T11:21:17;14.83;;;6.73;;
6821;SDS011;3449;48.728;8.968;2023-02-28T11:23:47;12.47;;;6.70;;
6821;SDS011;3449;48.728;8.968;2023-02-28T11:26:17;10.90;;;6.50;;
6821;SDS011;3449;48.728;8.968;2023-02-28T11:29:08;11.70;;;6.97;;
6821;SDS011;3449;48.728;8.968;2023-02-28T11:31:37;8.43;;;6.07;;
6821;SDS011;3449;48.728;8.968;2023-02-28T11:34:20;11.50;;;6.33;;
6821;SDS011;3449;48.728;8.968;2023-02-28T11:36:51;15.80;;;6.30;;
6821;SDS011;3449;48.728;8.968;2023-02-28T11:39:20;12.10;;;6.40;;
6821;SDS011;3449;48.728;8.968;2023-02-28T11:41:52;13.90;;;7.87;;
6821;SDS011;3449;48.728;8.968;2023-02-28T11:44:33;10.10;;;6.23;;
6821;SDS011;3449;48.728;8.968;2023-02-28T11:47:10;13.33;;;6.50;;
6821;SDS011;3449;48.728;8.968;2023-02-28T11:49:45;13.77;;;5.97;;
6821;SDS011;3449;48.728;8.968;2023-02-28T11:52:26;17.43;;;7.20;;
6821;SDS011;3449;48.728;8.968;2023-02-28T11:55:07;13.37;;;6.60;;
6821;SDS011;3449;48.728;8.968;2023-02-28T11:57:47;14.13;;;7.17;;
6821;SDS011;3449;48.728;8.968;2023-02-28T12:00:28;13.27;;;6.17;;
6821;SDS011;3449;48.728;8.968;2023-02-28T12:03:06;10.43;;;6.33;;
6821;SDS011;3449;48.728;8.968;2023-02-28T12:05:44;13.27;;;6.53;;
6821;SDS011;3449;48.728;8.968;2023-02-28T12:08:18;15.57;;;5.90;;
6821;SDS011;3449;48.728;8.968;2023-02-28T12:10:57;10.30;;;6.20;;
6821;SDS011;3449;48.728;8.968;2023-02-28T12:13:34;10.20;;;5.57;;
6821;SDS011;3449;48.728;8.968;2023-02-28T12:16:20;10.70;;;5.90;;
6821;SDS011;3449;48.728;8.968;2023-02-28T12:19:05;10.20;;;6.03;;
6821;SDS011;3449;48.728;8.968;2023-02-28T12:21:45;13.50;;;7.63;;
6821;SDS011;3449;48.728;8.968;2023-02-28T12:24:26;11.47;;;6.33;;
6821;SDS011;3449;48.728;8.968;2023-02-28T12:27:07;13.73;;;7.37;;
6821;SDS011;3449;48.728;8.968;2023-02-28T12:29:39;10.10;;;5.90;;
6821;SDS011;3449;48.728;8.968;2023-02-28T12:32:12;11.87;;;6.10;;
6821;SDS011;3449;48.728;8.968;2023-02-28T12:34:44;10.93;;;6.60;;
6821;SDS011;3449;48.728;8.968;2023-02-28T12:37:15;10.57;;;5.90;;
6821;SDS011;3449;48.728;8.968;2023-02-28T12:39:49;9.73;;;5.83;;
6821;SDS011;3449;48.728;8.968;2023-02-28T12:42:24;8.90;;;6.20;;
6821;SDS011;3449;48.728;8.968;2023-02-28T12:44:56;10.50;;;6.67;;
6821;SDS011;3449;48.728;8.968;2023-02-28T12:47:27;10.43;;;5.90;;
6821;SDS011;3449;48.728;8.968;2023-02-28T12:49:55;8.80;;;6.00;;
6821;SDS011;3449;48.728;8.968;2023-02-28T12:52:28;17.47;;;7.50;;
6821;SDS011;3449;48.728;8.968;2023-02-28T12:55:03;8.80;;;5.73;;
6821;SDS011;3449;48.728;8.968;2023-02-28T12:57:36;13.97;;;7.30;;
6821;SDS011;3449;48.728;8.968;2023-02-28T13:00:10;12.00;;;6.20;;
6821;SDS011;3449;48.728;8.968;2023-02-28T13:02:50;14.20;;;7.07;;
6821;SDS011;3449;48.728;8.968;2023-02-28T13:05:52;18.17;;;6.60;;
6821;SDS011;3449;48.728;8.968;2023-02-28T13:08:37;11.33;;;6.07;;
6821;SDS011;3449;48.728;8.968;2023-02-28T13:11:25;9.30;;;6.23;;
6821;SDS011;3449;48.728;8.968;2023-02-28T13:14:00;16.80;;;7.20;;
6821;SDS011;3449;48.728;8.968;2023-02-28T13:16:32;11.30;;;6.70;;
6821;SDS011;3449;48.728;8.968;2023-02-28T13:19:17;10.50;;;5.83;;
6821;SDS011;3449;48.728;8.968;2023-02-28T13:21:48;11.73;;;6.40;;
6821;SDS011;3449;48.728;8.968;2023-02-28T13:33:28;14.10;;;7.07;;
6821;SDS011;3449;48.728;8.968;2023-02-28T13:38:56;13.70;;;7.10;;
6821;SDS011;3449;48.728;8.968;2023-02-28T13:41:45;10.00;;;6.17;;
6821;SDS011;3449;48.728;8.968;2023-02-28T13:44:14;11.27;;;6.23;;
6821;SDS011;3449;48.728;8.968;2023-02-28T13:49:49;15.00;;;7.37;;
6821;SDS011;3449;48.728;8.968;2023-02-28T13:52:18;10.50;;;6.43;;
6821;SDS011;3449;48.728;8.968;2023-02-28T13:54:58;12.70;;;6.60;;
6821;SDS011;3449;48.728;8.968;2023-02-28T13:57:51;12.57;;;6.50;;
6821;SDS011;3449;48.728;8.968;2023-02-28T14:00:31;9.17;;;6.33;;
6821;SDS011;3449;48.728;8.968;2023-02-28T14:03:10;13.83;;;6.37;;
6821;SDS011;3449;48.728;8.968;2023-02-28T14:08:49;10.20;;;6.63;;
6821;SDS011;3449;48.728;8.968;2023-02-28T14:11:26;12.63;;;7.03;;
6821;SDS011;3449;48.728;8.968;2023-02-28T14:13:58;9.70;;;5.50;;
6821;SDS011;3449;48.728;8.968;2023-02-28T14:16:26;9.37;;;6.03;;
6821;SDS011;3449;48.728;8.968;2023-02-28T14:19:01;15.87;;;6.70;;
6821;SDS011;3449;48.728;8.968;2023-02-28T14:21:38;9.23;;;5.80;;
6821;SDS011;3449;48.728;8.968;2023-02-28T14:24:16;14.90;;;7.00;;
6821;SDS011;3449;48.728;8.968;2023-02-28T14:33:18;10.03;;;6.13;;
6821;SDS011;3449;48.728;8.968;2023-02-28T14:35:58;8.30;;;6.00;;
6821;SDS011;3449;48.728;8.968;2023-02-28T14:38:35;10.07;;;6.03;;
6821;SDS011;3449;48.728;8.968;2023-02-28T14:41:06;8.30;;;5.70;;
6821;SDS011;3449;48.728;8.968;2023-02-28T14:43:47;11.07;;;6.37;;
6821;SDS011;3449;48.728;8.968;2023-02-28T14:46:16;9.40;;;6.33;;
6821;SDS011;3449;48.728;8.968;2023-02-28T14:48:44;10.10;;;5.27;;
6821;SDS011;3449;48.728;8.968;2023-02-28T14:51:13;10.53;;;5.30;;
6821;SDS011;3449;48.728;8.968;2023-02-28T14:53:48;10.43;;;5.77;;
6821;SDS011;3449;48.728;8.968;2023-02-28T14:56:19;7.90;;;5.27;;
6821;SDS011;3449;48.728;8.968;2023-02-28T14:58:52;14.10;;;6.47;;
6821;SDS011;3449;48.728;8.968;2023-02-28T15:01:21;12.90;;;6.20;;
6821;SDS011;3449;48.728;8.968;2023-02-28T15:03:56;9.47;;;5.80;;
6821;SDS011;3449;48.728;8.968;2023-02-28T15:06:24;10.73;;;6.70;;
6821;SDS011;3449;48.728;8.968;2023-02-28T15:11:47;12.37;;;6.07;;
6821;SDS011;3449;48.728;8.968;2023-02-28T15:14:19;11.40;;;5.57;;
6821;SDS011;3449;48.728;8.968;2023-02-28T15:16:48;10.40;;;6.50;;
6821;SDS011;3449;48.728;8.968;2023-02-28T15:19:20;12.87;;;6.23;;
6821;SDS011;3449;48.728;8.968;2023-02-28T15:21:50;16.77;;;7.40;;
6821;SDS011;3449;48.728;8.968;2023-02-28T15:24:24;11.50;;;6.03;;
6821;SDS011;3449;48.728;8.968;2023-02-28T15:26:59;11.07;;;5.97;;
6821;SDS011;3449;48.728;8.968;2023-02-28T15:29:30;10.53;;;5.77;;
6821;SDS011;3449;48.728;8.968;2023-02-28T15:32:03;15.93;;;7.07;;
6821;SDS011;3449;48.728;8.968;2023-02-28T15:34:33;14.23;;;6.10;;
6821;SDS011;3449;48.728;8.968;2023-02-28T15:37:06;12.77;;;6.37;;
6821;SDS011;3449;48.728;8.968;2023-02-28T15:39:48;8.87;;;5.70;;
6821;SDS011;3449;48.728;8.968;2023-02-28T15:42:18;12.30;;;5.73;;
6821;SDS011;3449;48.728;8.968;2023-02-28T15:44:47;13.53;;;5.93;;
6821;SDS011;3449;48.728;8.968;2023-02-28T15:47:15;11.00;;;6.40;;
6821;SDS011;3449;48.728;8.968;2023-02-28T15:49:45;14.20;;;6.40;;
6821;SDS011;3449;48.728;8.968;2023-02-28T15:52:15;9.93;;;6.37;;
6821;SDS011;3449;48.728;8.968;2023-02-28T15:54:45;11.87;;;6.60;;
6821;SDS011;3449;48.728;8.968;2023-02-28T15:57:13;15.67;;;6.50;;
6821;SDS011;3449;48.728;8.968;2023-02-28T15:59:49;11.23;;;6.40;;
6821;SDS011;3449;48.728;8.968;2023-02-28T16:02:18;10.80;;;6.53;;
6821;SDS011;3449;48.728;8.968;2023-02-28T16:05:00;14.10;;;6.80;;
6821;SDS011;3449;48.728;8.968;2023-02-28T16:07:42;13.50;;;5.67;;
6821;SDS011;3449;48.728;8.968;2023-02-28T16:10:10;12.07;;;6.43;;